Time;durP1;ratioP1;P1;durP2;ratioP2;P2;SDS_P1;SDS_P2;PMS_P1;PMS_P2;Temp;Humidity;BMP_temperature;BMP_pressure;BME280_temperature;BME280_humidity;BME280_pressure;Samples;Min_cycle;Max_cycle;Signal;HPM_P1;HPM_P2
2021/07/28 00:02:43;;;;;;;22.85;14.38;;;;;;;19.32;89.81;98833.22;3956460;88;21035;-82
2021/07/28 00:08:45;;;;;;;18.73;15.85;;;;;;;19.32;90.30;98829.65;3953429;89;21454;-82
2021/07/28 00:14:46;;;;;;;18.48;14.73;;;;;;;19.25;90.45;98825.03;3955475;88;21099;-82
2021/07/28 00:26:59;;;;;;;18.73;14.75;;;;;;;19.21;90.98;98813.26;3895982;89;21091;-82
2021/07/28 00:33:07;;;;;;;24.77;12.65;;;;;;;19.20;91.08;98818.62;3943914;89;21027;-83
2021/07/28 00:39:09;;;;;;;20.70;12.15;;;;;;;19.24;91.61;98818.53;3944876;89;21080;-82
2021/07/28 00:45:11;;;;;;;15.55;12.53;;;;;;;19.20;91.44;98816.47;3957660;88;21629;-82
2021/07/28 00:51:13;;;;;;;18.10;14.13;;;;;;;19.17;91.44;98806.25;3952065;89;21094;-82
2021/07/28 00:57:15;;;;;;;18.40;14.58;;;;;;;19.05;91.29;98798.61;3936286;88;21011;-83
2021/07/28 01:03:18;;;;;;;19.23;15.28;;;;;;;18.91;91.61;98792.05;3955455;89;21082;-82
2021/07/28 01:09:19;;;;;;;19.82;13.68;;;;;;;18.85;91.96;98791.02;3950097;89;20999;-82
2021/07/28 01:21:40;;;;;;;20.37;14.13;;;;;;;18.92;92.73;98783.28;3938237;89;21039;-82
2021/07/28 01:27:44;;;;;;;17.70;12.20;;;;;;;18.94;92.79;98789.19;3944102;89;22275;-82
2021/07/28 01:33:47;;;;;;;19.57;13.08;;;;;;;19.03;92.99;98791.36;3943732;89;21058;-83
2021/07/28 01:39:49;;;;;;;19.60;13.28;;;;;;;18.95;92.52;98785.81;3949537;89;21543;-83
2021/07/28 01:45:56;;;;;;;18.20;14.43;;;;;;;18.87;92.41;98781.66;3953913;88;21106;-83
2021/07/28 01:51:57;;;;;;;;;;;;;;;18.68;92.54;98782.70;3947533;89;21062;-83
2021/07/28 01:57:59;;;;;;;15.38;12.73;;;;;;;18.57;93.16;98773.86;3958722;88;20201;-83
2021/07/28 02:04:00;;;;;;;17.95;12.00;;;;;;;18.51;92.92;98767.91;3946103;88;21096;-83
2021/07/28 02:10:03;;;;;;;16.07;13.18;;;;;;;18.61;93.28;98773.19;3950500;89;22557;-82
2021/07/28 02:16:05;;;;;;;17.32;14.43;;;;;;;18.58;93.26;98771.28;3942327;89;21079;-82
2021/07/28 02:22:13;;;;;;;18.15;13.35;;;;;;;18.46;92.99;98768.42;3961532;88;21015;-82
2021/07/28 02:28:14;;;;;;;18.32;13.60;;;;;;;18.37;93.15;98774.52;3947283;89;21051;-81
2021/07/28 02:34:15;;;;;;;19.67;13.85;;;;;;;18.28;93.27;98773.55;3947935;89;21091;-82
2021/07/28 02:40:20;;;;;;;16.12;12.35;;;;;;;18.21;93.46;98769.58;3947152;88;21606;-82
2021/07/28 02:46:21;;;;;;;17.95;14.53;;;;;;;18.27;94.21;98767.25;3947325;89;21579;-82
2021/07/28 02:52:22;;;;;;;21.45;14.80;;;;;;;18.25;94.09;98767.49;3948449;88;21059;-82
2021/07/28 02:58:24;;;;;;;17.75;12.53;;;;;;;18.10;94.80;98766.27;3941483;88;21087;-82
2021/07/28 03:04:25;;;;;;;19.23;14.60;;;;;;;18.32;95.21;98772.88;3952295;89;21018;-82
2021/07/28 03:10:26;;;;;;;16.55;13.32;;;;;;;18.39;94.70;98792.92;3947071;89;21058;-82
2021/07/28 03:16:28;;;;;;;16.45;13.75;;;;;;;18.28;94.45;98782.66;3946524;88;21138;-82
2021/07/28 03:22:29;;;;;;;19.00;14.18;;;;;;;18.29;94.90;98796.67;3942075;89;21063;-82
2021/07/28 03:28:31;;;;;;;20.43;11.57;;;;;;;18.37;95.23;98782.83;3928693;89;21864;-82
2021/07/28 03:34:32;;;;;;;14.25;12.60;;;;;;;18.53;95.65;98782.09;3916183;90;21097;-82
2021/07/28 03:40:33;;;;;;;21.48;14.05;;;;;;;18.60;95.31;98777.16;3915363;90;21066;-83
2021/07/28 03:46:35;;;;;;;17.27;13.78;;;;;;;18.63;95.43;98776.31;3895672;89;21034;-83
2021/07/28 03:52:36;;;;;;;19.05;14.98;;;;;;;18.60;95.59;98759.76;3896292;90;21118;-83
2021/07/28 03:58:38;;;;;;;22.82;15.60;;;;;;;18.58;96.88;98766.33;3911832;90;21649;-83
2021/07/28 04:04:40;;;;;;;16.57;13.83;;;;;;;18.55;96.46;98769.38;3924491;89;21114;-83
2021/07/28 04:10:41;;;;;;;18.85;14.13;;;;;;;18.57;96.65;98771.72;3902259;90;21578;-83
2021/07/28 04:16:43;;;;;;;20.43;14.83;;;;;;;18.59;96.57;98774.22;3914607;89;21686;-83
2021/07/28 04:22:45;;;;;;;18.20;14.13;;;;;;;18.53;96.96;98772.39;3894606;90;21571;-84
2021/07/28 04:28:46;;;;;;;17.07;13.90;;;;;;;18.58;97.34;98769.89;3906475;89;21035;-84
2021/07/28 04:34:47;;;;;;;18.40;13.83;;;;;;;18.62;97.29;98776.12;3904964;90;21106;-84
2021/07/28 04:40:51;;;;;;;17.77;15.10;;;;;;;18.71;97.61;98758.26;3914196;89;21074;-84
2021/07/28 04:46:56;;;;;;;21.73;16.60;;;;;;;18.78;97.70;98744.83;3899367;90;21959;-84
2021/07/28 04:52:58;;;;;;;21.15;14.75;;;;;;;18.91;97.93;98737.96;3899919;90;21066;-83
2021/07/28 04:58:59;;;;;;;17.10;14.18;;;;;;;19.14;98.03;98730.19;3912602;89;21172;-83
2021/07/28 05:05:00;;;;;;;18.40;12.33;;;;;;;19.29;98.05;98731.41;3896450;89;21597;-83
2021/07/28 05:11:01;;;;;;;15.45;11.33;;;;;;;19.45;98.25;98718.07;3896705;89;21137;-82
2021/07/28 05:17:03;;;;;;;17.30;10.68;;;;;;;19.64;98.40;98711.53;3899771;90;21591;-83
2021/07/28 05:23:04;;;;;;;14.05;10.30;;;;;;;19.83;98.24;98707.19;3901835;90;21038;-83
2021/07/28 05:29:07;;;;;;;18.02;9.38;;;;;;;20.04;98.37;98718.26;3931759;89;21091;-83
2021/07/28 05:35:11;;;;;;;13.43;9.05;;;;;;;20.29;98.48;98715.50;3920473;89;21059;-83
2021/07/28 05:41:13;;;;;;;19.25;12.63;;;;;;;20.59;98.03;98718.29;3934416;89;21047;-83
2021/07/28 05:47:14;;;;;;;18.55;12.40;;;;;;;20.87;97.50;98706.98;3940743;89;21134;-83
2021/07/28 05:53:17;;;;;;;14.47;11.15;;;;;;;21.07;97.18;98706.09;3951614;88;21111;-84
2021/07/28 05:59:21;;;;;;;19.73;9.60;;;;;;;21.28;96.98;98702.53;3942400;89;21086;-84
2021/07/28 06:05:23;;;;;;;13.85;7.28;;;;;;;21.48;96.51;98696.64;3951952;89;21083;-84
2021/07/28 06:11:25;;;;;;;9.75;6.55;;;;;;;21.80;94.79;98689.89;3946453;89;21792;-84
2021/07/28 06:17:26;;;;;;;9.98;6.75;;;;;;;21.97;94.07;98695.39;3953711;88;21094;-84
2021/07/28 06:23:28;;;;;;;11.88;5.75;;;;;;;22.15;94.02;98702.42;3944357;89;21683;-84
2021/07/28 06:29:31;;;;;;;12.15;6.08;;;;;;;22.30;92.42;98712.53;3950292;89;21084;-85
2021/07/28 06:35:33;;;;;;;6.78;5.67;;;;;;;22.68;89.48;98705.22;3947376;89;21062;-85
2021/07/28 06:41:34;;;;;;;8.63;6.72;;;;;;;22.91;89.98;98697.67;3942573;89;21051;-85
2021/07/28 06:47:35;;;;;;;11.45;6.55;;;;;;;23.17;83.87;98698.91;3936755;89;21082;-85
2021/07/28 06:53:47;;;;;;;7.42;6.15;;;;;;;23.47;85.80;98697.98;3948349;89;21086;-84
2021/07/28 07:00:09;;;;;;;10.40;6.60;;;;;;;23.68;86.08;98694.83;3957666;89;21574;-84
2021/07/28 07:06:11;;;;;;;12.70;5.95;;;;;;;23.89;85.57;98685.44;3942555;88;21039;-87
2021/07/28 07:12:16;;;;;;;8.00;6.28;;;;;;;24.13;85.16;98681.47;3939264;89;21134;-85
2021/07/28 07:18:18;;;;;;;9.80;5.47;;;;;;;24.32;84.44;98675.94;3939378;89;22077;-85
2021/07/28 07:24:19;;;;;;;10.23;5.65;;;;;;;24.59;80.04;98669.41;3952022;88;21064;-84
2021/07/28 07:30:31;;;;;;;10.13;5.33;;;;;;;24.89;80.58;98664.09;3959786;88;21070;-85
2021/07/28 07:36:32;;;;;;;7.12;5.40;;;;;;;25.33;80.91;98657.97;3943782;88;21127;-85
2021/07/28 07:42:34;;;;;;;9.13;5.50;;;;;;;25.78;80.59;98651.09;3952807;88;21555;-87
2021/07/28 07:48:36;;;;;;;6.65;5.22;;;;;;;26.30;80.11;98644.53;3955620;88;21112;-86
2021/07/28 07:54:37;;;;;;;9.63;4.55;;;;;;;26.89;78.63;98645.83;3932271;89;21082;-85
2021/07/28 08:00:38;;;;;;;7.30;5.05;;;;;;;27.41;76.56;98641.83;3934223;89;21158;-86
2021/07/28 08:06:39;;;;;;;7.22;4.65;;;;;;;27.95;76.06;98638.62;3935083;89;21531;-85
2021/07/28 08:31:09;;;;;;;8.03;4.62;;;;;;;28.55;68.10;98626.97;4384103;76;69458;31
2021/07/28 08:37:12;;;;;;;10.03;4.65;;;;;;;28.71;67.86;98612.83;4280896;81;21604;-85
2021/07/28 08:43:13;;;;;;;10.48;4.53;;;;;;;28.73;65.98;98611.69;4278438;81;21053;-85
2021/07/28 08:49:17;;;;;;;12.75;4.70;;;;;;;28.60;63.04;98608.56;4128196;84;21019;-84
2021/07/28 08:55:20;;;;;;;11.70;4.60;;;;;;;28.67;63.76;98604.64;4154607;83;21067;-87
2021/07/28 09:01:21;;;;;;;12.10;4.97;;;;;;;28.61;63.20;98609.45;4107817;84;21076;-86
2021/07/28 09:07:23;;;;;;;10.70;4.78;;;;;;;28.64;62.74;98611.29;4112124;84;21115;-86
2021/07/28 09:13:39;;;;;;;10.10;4.83;;;;;;;28.71;62.81;98611.42;4271677;81;21005;-86
2021/07/28 09:19:52;;;;;;;13.08;5.03;;;;;;;28.63;62.50;98602.69;4265341;81;21019;-86
2021/07/28 09:25:56;;;;;;;9.48;4.92;;;;;;;28.84;61.03;98601.88;4286889;81;21701;-86
2021/07/28 09:32:05;;;;;;;9.00;4.75;;;;;;;29.22;62.26;98603.27;4292375;81;21348;-86
2021/07/28 09:38:43;;;;;;;11.43;4.42;;;;;;;29.35;61.26;98600.08;4268275;81;21003;-86
2021/07/28 09:44:52;;;;;;;8.70;4.42;;;;;;;30.01;60.13;98604.33;4262330;81;21026;-85
2021/07/28 09:50:53;;;;;;;8.53;3.67;;;;;;;30.54;54.79;98603.18;4266627;81;21027;-86
2021/07/28 09:56:58;;;;;;;7.65;3.65;;;;;;;31.17;55.82;98600.32;4267823;81;21043;-85
2021/07/28 10:03:04;;;;;;;6.12;3.58;;;;;;;31.72;53.51;98594.28;4275559;81;21003;-86
2021/07/28 10:09:09;;;;;;;9.48;3.67;;;;;;;32.20;52.25;98585.11;4278678;81;21033;-85
2021/07/28 10:15:11;;;;;;;7.55;3.30;;;;;;;32.65;51.63;98579.84;4279104;81;21122;-86
2021/07/28 10:21:12;;;;;;;8.55;3.37;;;;;;;32.84;50.90;98577.76;4276196;81;21050;-85
2021/07/28 10:27:15;;;;;;;8.38;3.47;;;;;;;32.51;50.20;98573.96;4277634;81;21052;-86
2021/07/28 10:33:27;;;;;;;7.47;3.05;;;;;;;32.13;49.97;98580.02;4261255;81;21106;-85
2021/07/28 10:39:47;;;;;;;13.08;3.65;;;;;;;32.21;49.27;98572.47;4279601;81;21095;-84
2021/07/28 10:45:59;;;;;;;9.65;4.00;;;;;;;32.38;48.00;98566.77;4271932;81;21657;-86
2021/07/28 10:52:04;;;;;;;9.03;3.90;;;;;;;32.58;48.53;98560.59;4285254;81;22304;-86
2021/07/28 10:58:14;;;;;;;13.80;4.30;;;;;;;32.47;47.73;98569.23;4274279;81;21034;-86
2021/07/28 11:04:23;;;;;;;9.08;3.50;;;;;;;32.33;47.67;98568.20;4276797;81;21117;-85
2021/07/28 11:10:27;;;;;;;9.38;3.65;;;;;;;32.73;47.48;98571.48;4274069;81;21070;-85
2021/07/28 11:16:29;;;;;;;8.78;3.92;;;;;;;33.02;47.28;98554.34;4265621;81;21029;-86
2021/07/28 11:22:30;;;;;;;9.10;3.67;;;;;;;33.54;47.35;98555.88;4274486;81;21655;-86
2021/07/28 11:28:32;;;;;;;7.95;3.83;;;;;;;34.31;46.62;98558.75;4268518;81;21007;-86
2021/07/28 11:34:55;;;;;;;8.40;3.60;;;;;;;34.75;45.79;98551.50;4275483;81;21069;-86
2021/07/28 11:41:00;;;;;;;8.68;4.05;;;;;;;34.85;44.83;98554.66;4277205;81;20999;-86
2021/07/28 11:47:04;;;;;;;10.08;3.67;;;;;;;34.64;45.02;98556.00;4244992;81;21046;-86
2021/07/28 11:53:05;;;;;;;12.63;3.98;;;;;;;34.22;44.94;98557.78;4289359;81;21375;-86
2021/07/28 11:59:10;;;;;;;9.65;4.15;;;;;;;34.12;44.99;98553.19;4270617;81;21493;-86
2021/07/28 12:05:11;;;;;;;14.38;4.60;;;;;;;33.71;44.69;98543.59;4284218;81;21023;-86
2021/07/28 12:11:13;;;;;;;9.48;4.55;;;;;;;33.40;44.40;98538.06;4273712;81;20976;-86
2021/07/28 12:17:22;;;;;;;10.32;4.40;;;;;;;33.14;44.73;98538.69;4262040;82;21514;-85
2021/07/28 12:23:23;;;;;;;14.15;5.35;;;;;;;32.73;44.01;98536.81;4287024;81;21038;-86
2021/07/28 12:29:42;;;;;;;7.95;3.95;;;;;;;32.50;44.24;98527.08;4284651;82;21597;-85
2021/07/28 12:35:56;;;;;;;12.15;5.42;;;;;;;31.98;44.71;98530.91;4280554;81;21025;-85
2021/07/28 12:41:58;;;;;;;8.63;4.30;;;;;;;31.81;45.77;98527.44;4341713;81;21466;-85
2021/07/28 12:48:00;;;;;;;10.72;4.17;;;;;;;31.43;46.05;98525.75;4259970;81;20997;-85
2021/07/28 12:54:02;;;;;;;10.08;4.90;;;;;;;31.16;46.34;98521.05;4272202;81;21001;-85
2021/07/28 13:00:05;;;;;;;14.20;4.72;;;;;;;31.03;46.96;98510.98;4286397;82;21071;-86
2021/07/28 13:06:10;;;;;;;8.70;4.00;;;;;;;31.00;48.28;98500.73;4293059;81;20995;-84
2021/07/28 13:12:11;;;;;;;7.60;4.40;;;;;;;30.82;48.70;98505.63;4280981;81;21007;-85
2021/07/28 13:18:14;;;;;;;7.05;4.30;;;;;;;30.59;48.84;98502.78;4318004;81;21493;-85
2021/07/28 13:24:16;;;;;;;10.68;4.60;;;;;;;30.41;49.32;98493.61;4274705;81;20975;-86
2021/07/28 13:30:17;;;;;;;13.88;5.20;;;;;;;30.33;49.90;98503.16;4282117;81;21371;-83
2021/07/28 13:36:18;;;;;;;13.00;5.15;;;;;;;30.28;49.77;98501.13;4289900;81;20980;-85
2021/07/28 13:42:26;;;;;;;8.55;4.25;;;;;;;30.18;50.31;98492.81;4287951;81;21520;-85
2021/07/28 13:48:27;;;;;;;13.53;5.65;;;;;;;30.15;50.46;98488.18;4272800;81;20981;-84
2021/07/28 13:54:28;;;;;;;12.68;5.28;;;;;;;30.09;50.99;98483.20;4270484;81;20953;-85
2021/07/28 14:00:31;;;;;;;15.85;5.25;;;;;;;29.96;51.51;98475.95;4273727;81;22041;-85
2021/07/28 14:06:32;;;;;;;11.95;4.92;;;;;;;29.87;51.82;98471.36;4269448;81;21037;-85
2021/07/28 14:12:33;;;;;;;10.58;4.67;;;;;;;29.78;51.25;98463.19;4309206;81;21059;-85
2021/07/28 14:18:41;;;;;;;16.13;5.10;;;;;;;29.72;51.05;98463.06;4289235;81;21106;-85
2021/07/28 14:24:43;;;;;;;11.48;5.70;;;;;;;29.68;51.13;98452.70;4241565;81;21019;-85
2021/07/28 14:30:46;;;;;;;11.40;5.35;;;;;;;29.61;51.47;98442.69;4273034;81;21525;-84
2021/07/28 14:36:48;;;;;;;13.05;5.47;;;;;;;29.48;52.76;98445.27;4275199;81;21005;-85
2021/07/28 14:42:51;;;;;;;10.72;4.90;;;;;;;29.39;52.77;98432.08;4272267;81;21079;-85
2021/07/28 14:48:53;;;;;;;10.88;5.42;;;;;;;29.46;52.68;98423.11;4267801;81;21051;-84
2021/07/28 14:54:54;;;;;;;15.63;6.05;;;;;;;29.44;52.38;98422.22;4321135;81;21022;-84
2021/07/28 15:00:56;;;;;;;19.10;7.55;;;;;;;29.39;52.78;98424.41;4278543;81;21024;-84
2021/07/28 15:06:57;;;;;;;11.93;6.03;;;;;;;29.45;52.81;98418.73;4237461;81;21493;-85
2021/07/28 15:12:58;;;;;;;12.50;5.25;;;;;;;29.43;53.04;98426.30;4258054;81;21080;-84
2021/07/28 15:19:10;;;;;;;11.43;4.92;;;;;;;29.31;53.08;98432.48;4331716;81;20975;-85
2021/07/28 15:25:12;;;;;;;20.57;9.43;;;;;;;29.16;53.13;98427.13;4270486;82;20991;-85
2021/07/28 15:31:15;;;;;;;13.38;7.83;;;;;;;29.05;53.66;98418.66;4280504;81;21030;-84
2021/07/28 15:37:16;;;;;;;16.35;6.45;;;;;;;28.99;53.78;98414.41;4240504;81;21011;-84
2021/07/28 15:43:17;;;;;;;17.02;7.33;;;;;;;28.87;54.14;98409.30;4286638;81;22299;-85
2021/07/28 15:49:19;;;;;;;11.10;5.72;;;;;;;28.63;54.20;98412.61;4272467;81;21006;-84
2021/07/28 15:55:20;;;;;;;18.37;8.10;;;;;;;28.38;55.14;98411.38;4265034;81;21007;-85
2021/07/28 16:01:22;;;;;;;12.30;6.47;;;;;;;28.20;55.33;98416.08;4277661;81;20991;-84
2021/07/28 16:07:25;;;;;;;13.45;5.80;;;;;;;28.06;55.51;98402.36;4279039;81;22063;-85
2021/07/28 16:13:26;;;;;;;15.15;6.33;;;;;;;27.94;55.68;98398.61;4279530;81;21006;-84
2021/07/28 16:19:27;;;;;;;14.93;6.08;;;;;;;27.82;55.76;98380.11;4247665;82;21030;-85
2021/07/28 16:25:33;;;;;;;8.60;5.47;;;;;;;27.68;56.16;98369.83;4274198;81;20983;-84
2021/07/28 16:31:34;;;;;;;17.48;5.92;;;;;;;27.57;56.77;98382.58;4260407;81;20971;-86
2021/07/28 16:37:36;;;;;;;11.68;5.95;;;;;;;27.39;57.38;98388.59;4266598;81;21006;-84
2021/07/28 16:43:40;;;;;;;16.55;6.05;;;;;;;27.28;58.05;98396.21;4124664;81;9999744;-85
2021/07/28 16:49:41;;;;;;;14.15;6.97;;;;;;;27.12;59.05;98390.59;4236385;81;21016;-85
2021/07/28 16:55:44;;;;;;;14.70;6.75;;;;;;;26.99;59.48;98399.28;4263162;81;21422;-85
2021/07/28 17:01:45;;;;;;;12.80;6.72;;;;;;;26.93;60.53;98409.09;4262804;81;20980;-85
2021/07/28 17:07:49;;;;;;;15.08;6.78;;;;;;;26.89;61.32;98417.61;4261361;81;21013;-84
2021/07/28 17:13:50;;;;;;;16.05;7.30;;;;;;;26.82;62.18;98416.02;4277980;81;21015;-86
2021/07/28 17:19:53;;;;;;;18.50;7.25;;;;;;;26.78;62.89;98409.84;4270321;81;21058;-85
2021/07/28 17:25:54;;;;;;;14.43;7.40;;;;;;;26.61;63.94;98411.70;4267225;81;20972;-85
2021/07/28 17:31:56;;;;;;;14.33;7.25;;;;;;;26.61;63.94;98411.70;4270495;81;21003;-86
2021/07/28 17:37:57;;;;;;;13.20;7.33;;;;;;;26.30;65.13;98417.27;4273786;81;21002;-87
2021/07/28 17:43:59;;;;;;;16.57;7.10;;;;;;;26.30;65.13;98417.27;4254016;81;20983;-84
2021/07/28 17:50:03;;;;;;;12.50;6.47;;;;;;;25.94;66.05;98434.05;4306728;81;21545;-85
2021/07/28 17:56:04;;;;;;;15.45;7.60;;;;;;;25.94;66.05;98434.05;4276505;81;21409;-84
2021/07/28 18:02:08;;;;;;;17.73;7.40;;;;;;;25.75;66.32;98451.00;4310787;82;21006;-84
2021/07/28 18:08:10;;;;;;;17.42;7.42;;;;;;;25.53;66.91;98476.53;4265390;81;21039;-84
2021/07/28 18:14:12;;;;;;;12.28;6.62;;;;;;;25.37;67.05;98488.28;4158015;81;9999578;-83
2021/07/28 18:20:13;;;;;;;14.68;6.55;;;;;;;25.25;66.71;98500.52;4279205;81;21594;-85
2021/07/28 18:26:14;;;;;;;11.83;6.10;;;;;;;25.09;66.39;98494.05;4265482;81;21022;-84
2021/07/28 18:32:16;;;;;;;11.08;5.67;;;;;;;24.97;66.40;98508.47;4250666;81;21963;-85
2021/07/28 18:38:17;;;;;;;13.43;6.78;;;;;;;24.89;66.62;98495.33;4266408;81;20993;-83
2021/07/28 18:44:19;;;;;;;12.33;6.47;;;;;;;24.71;66.97;98495.53;4270579;81;20986;-84
2021/07/28 18:50:21;;;;;;;10.30;5.62;;;;;;;24.58;67.14;98497.95;4271858;81;21589;-84
2021/07/28 18:56:22;;;;;;;14.90;6.75;;;;;;;24.48;67.34;98494.30;4270347;81;21925;-84
2021/07/28 19:02:25;;;;;;;9.25;5.97;;;;;;;24.44;67.82;98497.92;4250871;81;21042;-84
2021/07/28 19:08:26;;;;;;;11.38;7.33;;;;;;;24.43;67.81;98497.79;4268407;81;21029;-85
2021/07/28 19:14:28;;;;;;;10.40;6.47;;;;;;;24.30;68.01;98509.23;4284966;81;21079;-85
2021/07/28 19:20:29;;;;;;;15.40;6.50;;;;;;;24.28;68.47;98520.74;4270432;81;21639;-84
2021/07/28 19:26:31;;;;;;;12.40;6.45;;;;;;;24.24;68.51;98527.16;4262249;81;20966;-84
2021/07/28 19:32:32;;;;;;;19.48;8.75;;;;;;;24.24;69.21;98536.30;4274610;81;21627;-83
2021/07/28 19:38:34;;;;;;;14.25;6.70;;;;;;;24.15;68.76;98545.41;4266605;81;21071;-83
2021/07/28 19:44:35;;;;;;;10.70;6.53;;;;;;;24.02;68.68;98565.21;4266974;81;20996;-84
2021/07/28 19:50:37;;;;;;;14.45;6.50;;;;;;;23.98;68.82;98581.98;4267403;81;20979;-83
2021/07/28 19:56:39;;;;;;;15.72;7.85;;;;;;;23.94;69.31;98589.14;4260773;81;21023;-82
2021/07/28 20:02:44;;;;;;;20.37;8.30;;;;;;;23.77;70.10;98600.56;4258875;82;21048;-82
2021/07/28 20:08:45;;;;;;;16.82;8.80;;;;;;;23.34;71.66;98614.98;4270154;81;21023;-82
2021/07/28 20:14:47;;;;;;;16.80;8.50;;;;;;;22.99;73.61;98632.69;4258987;81;21080;-81
2021/07/28 20:20:53;;;;;;;17.90;9.43;;;;;;;22.66;74.33;98607.28;4253479;81;21055;-81
2021/07/28 20:26:55;;;;;;;18.00;9.35;;;;;;;22.39;75.42;98593.28;4239713;83;21594;-82
2021/07/28 20:33:06;;;;;;;19.12;9.18;;;;;;;22.19;76.21;98574.19;4270059;81;21030;-82
2021/07/28 20:39:08;;;;;;;13.10;8.45;;;;;;;22.07;76.48;98579.90;4280474;81;21020;-82
2021/07/28 20:45:11;;;;;;;15.18;9.50;;;;;;;21.78;77.81;98593.45;4273752;81;21034;-82
2021/07/28 20:51:12;;;;;;;18.85;10.50;;;;;;;21.57;78.84;98607.57;4281853;81;20993;-82
2021/07/28 20:57:14;;;;;;;16.80;10.35;;;;;;;21.45;79.09;98614.02;4277785;81;20964;-81
2021/07/28 21:03:15;;;;;;;21.95;9.60;;;;;;;21.35;79.41;98611.02;4230541;82;21045;-81
2021/07/28 21:09:16;;;;;;;13.55;8.85;;;;;;;21.32;80.17;98626.64;4252941;81;21082;-81
2021/07/28 21:15:18;;;;;;;15.18;9.70;;;;;;;21.41;80.85;98640.60;4259107;81;20991;-82
2021/07/28 21:21:19;;;;;;;20.08;9.48;;;;;;;21.37;80.95;98643.36;4275555;81;21489;-81
2021/07/28 21:27:21;;;;;;;17.42;10.13;;;;;;;21.39;81.91;98652.80;4260582;82;21001;-82
2021/07/28 21:33:24;;;;;;;19.45;9.10;;;;;;;21.46;82.08;98640.02;4254040;81;21005;-83
2021/07/28 21:39:29;;;;;;;19.98;9.78;;;;;;;21.46;82.62;98648.38;4265125;81;20975;-81
2021/07/28 21:52:01;;;;;;;18.12;9.63;;;;;;;21.53;83.25;98643.91;4259795;81;21027;-82
2021/07/28 21:58:12;;;;;;;15.28;8.58;;;;;;;21.49;83.35;98656.42;4261272;81;21057;-82
2021/07/28 22:04:13;;;;;;;13.13;8.38;;;;;;;21.52;83.87;98678.56;4262344;81;21457;-81
2021/07/28 22:10:15;;;;;;;15.63;9.30;;;;;;;21.54;84.28;98683.08;4280219;81;21550;-82
2021/07/28 22:16:17;;;;;;;16.95;9.03;;;;;;;21.44;84.38;98669.53;4283773;81;20991;-82
2021/07/28 22:22:18;;;;;;;12.90;8.48;;;;;;;21.36;84.84;98674.59;4239499;81;21017;-82
2021/07/28 22:28:20;;;;;;;17.87;8.20;;;;;;;21.30;85.10;98676.41;4278536;81;21028;-82
2021/07/28 22:34:21;;;;;;;16.87;8.90;;;;;;;21.26;85.67;98682.74;4227291;81;21037;-82
2021/07/28 22:40:23;;;;;;;16.60;9.68;;;;;;;21.19;85.81;98687.80;4279973;81;21018;-81
2021/07/28 22:46:26;;;;;;;19.80;10.45;;;;;;;21.12;86.15;98695.78;4281390;81;21032;-82
2021/07/28 23:11:28;;;;;;;14.70;7.78;;;;;;;20.99;86.66;98693.66;4261311;81;21009;-82
2021/07/28 23:17:29;;;;;;;17.52;8.15;;;;;;;20.92;86.73;98686.16;4268112;81;21053;-82
2021/07/28 23:23:30;;;;;;;14.95;7.45;;;;;;;20.86;87.43;98687.33;4285849;81;20963;-82
2021/07/28 23:29:33;;;;;;;16.02;8.63;;;;;;;20.86;87.57;98699.09;4274544;81;20963;-82
2021/07/28 23:35:39;;;;;;;10.68;7.00;;;;;;;20.83;88.14;98696.58;4257125;81;20997;-81
2021/07/28 23:41:40;;;;;;;13.25;7.45;;;;;;;20.88;88.25;98689.66;4268348;81;21046;-82
2021/07/28 23:47:42;;;;;;;12.13;7.15;;;;;;;20.90;88.46;98703.91;4306477;81;20991;-81
2021/07/28 23:53:43;;;;;;;12.30;7.17;;;;;;;20.87;88.46;98712.55;4273240;81;21512;-81
2021/07/28 23:59:46;;;;;;;15.15;6.83;;;;;;;20.82;88.73;98713.11;4265593;81;21539;-82
